sensor_id;sensor_type;location;lat;lon;timestamp;pressure;altitude;pressure_sealevel;temperature;humidity
15308;BME280;7755;52.208;6.964;2022-12-04T00:03:42;101551.16;;;1.20;100.00
15308;BME280;7755;52.208;6.964;2022-12-04T00:07:45;101553.16;;;1.18;100.00
15308;BME280;7755;52.208;6.964;2022-12-04T00:11:48;101549.19;;;1.22;100.00
15308;BME280;7755;52.208;6.964;2022-12-04T00:15:52;101553.38;;;1.25;100.00
15308;BME280;7755;52.208;6.964;2022-12-04T00:19:55;101546.84;;;1.27;100.00
15308;BME280;7755;52.208;6.964;2022-12-04T00:23:58;101533.81;;;1.32;100.00
15308;BME280;7755;52.208;6.964;2022-12-04T00:28:02;101530.63;;;1.29;100.00
15308;BME280;7755;52.208;6.964;2022-12-04T00:32:06;101524.41;;;1.28;100.00
15308;BME280;7755;52.208;6.964;2022-12-04T00:36:10;101535.13;;;1.28;100.00
15308;BME280;7755;52.208;6.964;2022-12-04T00:40:13;101533.44;;;1.27;100.00
15308;BME280;7755;52.208;6.964;2022-12-04T00:44:16;101533.09;;;1.22;100.00
15308;BME280;7755;52.208;6.964;2022-12-04T00:48:20;101535.91;;;1.21;100.00
15308;BME280;7755;52.208;6.964;2022-12-04T00:52:23;101532.09;;;1.23;100.00
15308;BME280;7755;52.208;6.964;2022-12-04T00:56:28;101538.59;;;1.21;100.00
15308;BME280;7755;52.208;6.964;2022-12-04T01:00:31;101530.25;;;1.24;100.00
15308;BME280;7755;52.208;6.964;2022-12-04T01:04:35;101534.09;;;1.21;100.00
15308;BME280;7755;52.208;6.964;2022-12-04T01:08:38;101541.47;;;1.27;100.00
15308;BME280;7755;52.208;6.964;2022-12-04T01:12:41;101535.66;;;1.32;100.00
15308;BME280;7755;52.208;6.964;2022-12-04T01:16:45;101538.53;;;1.39;100.00
15308;BME280;7755;52.208;6.964;2022-12-04T01:20:50;101541.69;;;1.34;100.00
15308;BME280;7755;52.208;6.964;2022-12-04T01:24:54;101542.84;;;1.31;100.00
15308;BME280;7755;52.208;6.964;2022-12-04T01:28:58;101539.16;;;1.32;100.00
15308;BME280;7755;52.208;6.964;2022-12-04T01:33:01;101533.31;;;1.29;100.00
15308;BME280;7755;52.208;6.964;2022-12-04T01:37:05;101540.66;;;1.27;100.00
15308;BME280;7755;52.208;6.964;2022-12-04T01:41:09;101532.94;;;1.24;100.00
15308;BME280;7755;52.208;6.964;2022-12-04T01:45:39;101540.97;;;1.24;100.00
15308;BME280;7755;52.208;6.964;2022-12-04T01:49:45;101531.09;;;1.24;100.00
15308;BME280;7755;52.208;6.964;2022-12-04T01:53:52;101534.16;;;1.29;100.00
15308;BME280;7755;52.208;6.964;2022-12-04T01:57:56;101532.59;;;1.27;100.00
15308;BME280;7755;52.208;6.964;2022-12-04T02:02:03;101535.13;;;1.28;100.00
15308;BME280;7755;52.208;6.964;2022-12-04T02:06:07;101528.25;;;1.26;100.00
15308;BME280;7755;52.208;6.964;2022-12-04T02:10:11;101526.94;;;1.30;100.00
15308;BME280;7755;52.208;6.964;2022-12-04T02:14:24;101528.25;;;1.26;100.00
15308;BME280;7755;52.208;6.964;2022-12-04T02:18:34;101530.25;;;1.24;100.00
15308;BME280;7755;52.208;6.964;2022-12-04T02:23:00;101521.38;;;1.23;100.00
15308;BME280;7755;52.208;6.964;2022-12-04T02:27:18;101516.88;;;1.24;100.00
15308;BME280;7755;52.208;6.964;2022-12-04T02:31:33;101515.88;;;1.25;100.00
15308;BME280;7755;52.208;6.964;2022-12-04T02:35:40;101520.22;;;1.26;100.00
15308;BME280;7755;52.208;6.964;2022-12-04T02:39:50;101514.88;;;1.26;100.00
15308;BME280;7755;52.208;6.964;2022-12-04T02:43:55;101506.66;;;1.27;100.00
15308;BME280;7755;52.208;6.964;2022-12-04T02:48:02;101503.69;;;1.30;100.00
15308;BME280;7755;52.208;6.964;2022-12-04T02:52:10;101502.03;;;1.38;100.00
15308;BME280;7755;52.208;6.964;2022-12-04T02:56:15;101495.47;;;1.32;100.00
15308;BME280;7755;52.208;6.964;2022-12-04T03:00:21;101485.22;;;1.27;100.00
15308;BME280;7755;52.208;6.964;2022-12-04T03:04:27;101492.59;;;1.25;100.00
15308;BME280;7755;52.208;6.964;2022-12-04T03:08:34;101491.75;;;1.25;100.00
15308;BME280;7755;52.208;6.964;2022-12-04T03:12:41;101498.50;;;1.29;100.00
15308;BME280;7755;52.208;6.964;2022-12-04T03:16:46;101496.78;;;1.28;100.00
15308;BME280;7755;52.208;6.964;2022-12-04T03:20:58;101488.41;;;1.23;100.00
15308;BME280;7755;52.208;6.964;2022-12-04T03:25:06;101492.75;;;1.24;100.00
15308;BME280;7755;52.208;6.964;2022-12-04T03:29:13;101488.91;;;1.26;100.00
15308;BME280;7755;52.208;6.964;2022-12-04T03:33:20;101489.59;;;1.28;100.00
15308;BME280;7755;52.208;6.964;2022-12-04T03:37:31;101502.31;;;1.26;100.00
15308;BME280;7755;52.208;6.964;2022-12-04T03:41:45;101492.78;;;1.32;100.00
15308;BME280;7755;52.208;6.964;2022-12-04T03:45:54;101480.56;;;1.29;100.00
15308;BME280;7755;52.208;6.964;2022-12-04T03:50:02;101487.78;;;1.29;100.00
15308;BME280;7755;52.208;6.964;2022-12-04T03:54:13;101493.59;;;1.24;100.00
15308;BME280;7755;52.208;6.964;2022-12-04T03:58:19;101493.59;;;1.24;100.00
15308;BME280;7755;52.208;6.964;2022-12-04T04:02:26;101497.94;;;1.25;100.00
15308;BME280;7755;52.208;6.964;2022-12-04T04:06:32;101492.44;;;1.27;100.00
15308;BME280;7755;52.208;6.964;2022-12-04T04:10:39;101501.16;;;1.29;100.00
15308;BME280;7755;52.208;6.964;2022-12-04T04:14:47;101496.47;;;1.31;100.00
15308;BME280;7755;52.208;6.964;2022-12-04T04:19:10;101506.66;;;1.27;100.00
15308;BME280;7755;52.208;6.964;2022-12-04T04:23:35;101496.94;;;1.26;100.00
15308;BME280;7755;52.208;6.964;2022-12-04T04:27:58;101499.63;;;1.26;100.00
15308;BME280;7755;52.208;6.964;2022-12-04T04:32:08;101495.75;;;1.21;100.00
15308;BME280;7755;52.208;6.964;2022-12-04T04:36:17;101502.94;;;1.20;100.00
15308;BME280;7755;52.208;6.964;2022-12-04T04:40:26;101502.66;;;1.23;100.00
15308;BME280;7755;52.208;6.964;2022-12-04T04:44:39;101485.72;;;1.23;100.00
15308;BME280;7755;52.208;6.964;2022-12-04T04:48:47;101496.59;;;1.21;100.00
15308;BME280;7755;52.208;6.964;2022-12-04T04:52:55;101506.16;;;1.24;100.00
15308;BME280;7755;52.208;6.964;2022-12-04T04:57:01;101503.16;;;1.27;100.00
15308;BME280;7755;52.208;6.964;2022-12-04T05:01:08;101505.66;;;1.28;100.00
15308;BME280;7755;52.208;6.964;2022-12-04T05:05:12;101519.03;;;1.28;100.00
15308;BME280;7755;52.208;6.964;2022-12-04T05:09:14;101502.84;;;1.30;100.00
15308;BME280;7755;52.208;6.964;2022-12-04T05:13:18;101509.41;;;1.35;100.00
15308;BME280;7755;52.208;6.964;2022-12-04T05:17:22;101516.06;;;1.31;100.00
15308;BME280;7755;52.208;6.964;2022-12-04T05:21:25;101514.22;;;1.32;100.00
15308;BME280;7755;52.208;6.964;2022-12-04T05:25:29;101510.38;;;1.34;100.00
15308;BME280;7755;52.208;6.964;2022-12-04T05:29:32;101511.38;;;1.33;100.00
15308;BME280;7755;52.208;6.964;2022-12-04T05:33:38;101513.69;;;1.28;100.00
15308;BME280;7755;52.208;6.964;2022-12-04T05:37:40;101519.75;;;1.30;100.00
15308;BME280;7755;52.208;6.964;2022-12-04T05:41:44;101516.25;;;1.30;100.00
15308;BME280;7755;52.208;6.964;2022-12-04T05:45:46;101507.88;;;1.33;100.00
15308;BME280;7755;52.208;6.964;2022-12-04T05:49:51;101504.34;;;1.32;100.00
15308;BME280;7755;52.208;6.964;2022-12-04T05:53:54;101504.34;;;1.32;100.00
15308;BME280;7755;52.208;6.964;2022-12-04T05:57:57;101499.63;;;1.26;100.00
15308;BME280;7755;52.208;6.964;2022-12-04T06:01:59;101492.56;;;1.17;100.00
15308;BME280;7755;52.208;6.964;2022-12-04T06:06:04;101490.34;;;1.13;100.00
15308;BME280;7755;52.208;6.964;2022-12-04T06:10:18;101487.88;;;1.19;100.00
15308;BME280;7755;52.208;6.964;2022-12-04T06:14:20;101479.38;;;1.24;100.00
15308;BME280;7755;52.208;6.964;2022-12-04T06:18:23;101478.88;;;1.28;100.00
15308;BME280;7755;52.208;6.964;2022-12-04T06:22:27;101471.16;;;1.25;100.00
15308;BME280;7755;52.208;6.964;2022-12-04T06:26:30;101483.38;;;1.28;100.00
15308;BME280;7755;52.208;6.964;2022-12-04T06:30:33;101477.38;;;1.26;100.00
15308;BME280;7755;52.208;6.964;2022-12-04T06:34:37;101482.41;;;1.29;100.00
15308;BME280;7755;52.208;6.964;2022-12-04T06:38:41;101481.88;;;1.25;100.00
15308;BME280;7755;52.208;6.964;2022-12-04T06:42:44;101479.19;;;1.25;100.00
15308;BME280;7755;52.208;6.964;2022-12-04T06:46:48;101493.97;;;1.29;100.00
15308;BME280;7755;52.208;6.964;2022-12-04T06:50:57;101494.06;;;1.20;100.00
15308;BME280;7755;52.208;6.964;2022-12-04T06:55:01;101511.50;;;1.24;100.00
15308;BME280;7755;52.208;6.964;2022-12-04T06:59:04;101503.31;;;1.25;100.00
15308;BME280;7755;52.208;6.964;2022-12-04T07:03:07;101505.81;;;1.27;100.00
15308;BME280;7755;52.208;6.964;2022-12-04T07:07:10;101505.66;;;1.28;100.00
15308;BME280;7755;52.208;6.964;2022-12-04T07:11:15;101506.03;;;1.33;100.00
15308;BME280;7755;52.208;6.964;2022-12-04T07:15:18;101504.69;;;1.29;100.00
15308;BME280;7755;52.208;6.964;2022-12-04T07:19:21;101511.88;;;1.29;100.00
15308;BME280;7755;52.208;6.964;2022-12-04T07:23:23;101513.22;;;1.33;100.00
15308;BME280;7755;52.208;6.964;2022-12-04T07:27:30;101510.53;;;1.33;100.00
15308;BME280;7755;52.208;6.964;2022-12-04T07:31:33;101516.44;;;1.36;100.00
15308;BME280;7755;52.208;6.964;2022-12-04T07:35:36;101517.09;;;1.39;100.00
15308;BME280;7755;52.208;6.964;2022-12-04T07:39:38;101517.75;;;1.32;100.00
15308;BME280;7755;52.208;6.964;2022-12-04T07:43:42;101521.06;;;1.26;100.00
15308;BME280;7755;52.208;6.964;2022-12-04T07:47:45;101517.06;;;1.30;100.00
15308;BME280;7755;52.208;6.964;2022-12-04T07:51:48;101528.28;;;1.34;100.00
15308;BME280;7755;52.208;6.964;2022-12-04T07:55:51;101514.41;;;1.30;100.00
15308;BME280;7755;52.208;6.964;2022-12-04T07:59:55;101517.38;;;1.27;100.00
15308;BME280;7755;52.208;6.964;2022-12-04T08:03:59;101522.25;;;1.32;100.00
15308;BME280;7755;52.208;6.964;2022-12-04T08:08:04;101526.16;;;1.38;100.00
15308;BME280;7755;52.208;6.964;2022-12-04T08:12:08;101521.81;;;1.45;100.00
15308;BME280;7755;52.208;6.964;2022-12-04T08:16:12;101518.97;;;1.46;100.00
15308;BME280;7755;52.208;6.964;2022-12-04T08:20:15;101525.72;;;1.50;100.00
15308;BME280;7755;52.208;6.964;2022-12-04T08:24:18;101530.91;;;1.52;100.00
15308;BME280;7755;52.208;6.964;2022-12-04T08:28:21;101526.38;;;1.52;100.00
15308;BME280;7755;52.208;6.964;2022-12-04T08:32:25;101520.19;;;1.52;100.00
15308;BME280;7755;52.208;6.964;2022-12-04T08:36:28;101526.03;;;1.55;100.00
15308;BME280;7755;52.208;6.964;2022-12-04T08:40:31;101530.94;;;1.60;100.00
15308;BME280;7755;52.208;6.964;2022-12-04T08:44:33;101526.94;;;1.64;100.00
15308;BME280;7755;52.208;6.964;2022-12-04T08:48:38;101532.97;;;1.66;100.00
15308;BME280;7755;52.208;6.964;2022-12-04T08:52:41;101535.81;;;1.64;100.00
15308;BME280;7755;52.208;6.964;2022-12-04T08:56:43;101536.81;;;1.63;100.00
15308;BME280;7755;52.208;6.964;2022-12-04T09:00:46;101529.63;;;1.72;100.00
15308;BME280;7755;52.208;6.964;2022-12-04T09:04:50;101531.31;;;1.73;100.00
15308;BME280;7755;52.208;6.964;2022-12-04T09:08:53;101525.78;;;1.75;100.00
15308;BME280;7755;52.208;6.964;2022-12-04T09:12:57;101536.53;;;1.83;100.00
15308;BME280;7755;52.208;6.964;2022-12-04T09:17:00;101531.84;;;1.85;100.00
15308;BME280;7755;52.208;6.964;2022-12-04T09:21:06;101533.84;;;1.83;100.00
15308;BME280;7755;52.208;6.964;2022-12-04T09:25:09;101544.09;;;1.87;100.00
15308;BME280;7755;52.208;6.964;2022-12-04T09:29:12;101542.41;;;1.86;100.00
15308;BME280;7755;52.208;6.964;2022-12-04T09:33:15;101541.75;;;1.84;100.00
15308;BME280;7755;52.208;6.964;2022-12-04T09:37:19;101539.25;;;1.91;100.00
15308;BME280;7755;52.208;6.964;2022-12-04T09:41:39;101548.81;;;1.94;100.00
15308;BME280;7755;52.208;6.964;2022-12-04T09:45:50;101542.13;;;1.98;100.00
15308;BME280;7755;52.208;6.964;2022-12-04T09:49:58;101542.94;;;1.98;100.00
15308;BME280;7755;52.208;6.964;2022-12-04T09:54:09;101534.91;;;1.98;100.00
15308;BME280;7755;52.208;6.964;2022-12-04T09:58:17;101534.56;;;2.01;100.00
15308;BME280;7755;52.208;6.964;2022-12-04T10:02:34;101522.84;;;2.02;100.00
15308;BME280;7755;52.208;6.964;2022-12-04T10:06:43;101530.75;;;2.12;100.00
15308;BME280;7755;52.208;6.964;2022-12-04T10:10:58;101528.41;;;2.17;100.00
15308;BME280;7755;52.208;6.964;2022-12-04T10:15:11;101535.59;;;2.16;100.00
15308;BME280;7755;52.208;6.964;2022-12-04T10:19:27;101524.72;;;2.18;100.00
15308;BME280;7755;52.208;6.964;2022-12-04T10:23:37;101518.34;;;2.19;100.00
15308;BME280;7755;52.208;6.964;2022-12-04T10:27:51;101519.38;;;2.18;100.00
15308;BME280;7755;52.208;6.964;2022-12-04T10:32:14;101518.84;;;2.14;100.00
15308;BME280;7755;52.208;6.964;2022-12-04T10:36:21;101514.84;;;2.18;100.00
15308;BME280;7755;52.208;6.964;2022-12-04T10:40:30;101510.47;;;2.17;100.00
15308;BME280;7755;52.208;6.964;2022-12-04T10:44:36;101504.28;;;2.17;100.00
15308;BME280;7755;52.208;6.964;2022-12-04T10:48:40;101509.13;;;2.22;100.00
15308;BME280;7755;52.208;6.964;2022-12-04T10:52:45;101507.28;;;2.14;100.00
15308;BME280;7755;52.208;6.964;2022-12-04T10:56:53;101508.09;;;2.14;100.00
15308;BME280;7755;52.208;6.964;2022-12-04T11:01:02;101497.38;;;2.23;100.00
15308;BME280;7755;52.208;6.964;2022-12-04T11:05:20;101513.81;;;2.28;100.00
15308;BME280;7755;52.208;6.964;2022-12-04T11:09:24;101504.94;;;2.27;100.00
15308;BME280;7755;52.208;6.964;2022-12-04T11:13:27;101505.94;;;2.26;100.00
15308;BME280;7755;52.208;6.964;2022-12-04T11:17:32;101503.44;;;2.25;100.00
15308;BME280;7755;52.208;6.964;2022-12-04T11:21:37;101503.75;;;2.30;100.00
15308;BME280;7755;52.208;6.964;2022-12-04T11:25:44;101503.63;;;2.31;100.00
15308;BME280;7755;52.208;6.964;2022-12-04T11:29:49;101500.94;;;2.31;100.00
15308;BME280;7755;52.208;6.964;2022-12-04T11:33:59;101499.75;;;2.34;100.00
15308;BME280;7755;52.208;6.964;2022-12-04T11:38:06;101491.69;;;2.34;100.00
15308;BME280;7755;52.208;6.964;2022-12-04T11:42:16;101486.50;;;2.40;100.00
15308;BME280;7755;52.208;6.964;2022-12-04T11:46:21;101484.16;;;2.37;100.00
15308;BME280;7755;52.208;6.964;2022-12-04T11:50:30;101490.03;;;2.33;100.00
15308;BME280;7755;52.208;6.964;2022-12-04T11:54:47;101481.13;;;2.40;100.00
15308;BME280;7755;52.208;6.964;2022-12-04T12:03:35;101458.00;;;2.39;100.00
15308;BME280;7755;52.208;6.964;2022-12-04T12:07:48;101450.25;;;2.36;100.00
15308;BME280;7755;52.208;6.964;2022-12-04T12:12:07;101449.59;;;2.42;100.00
15308;BME280;7755;52.208;6.964;2022-12-04T12:16:17;101430.31;;;2.39;100.00
15308;BME280;7755;52.208;6.964;2022-12-04T12:20:26;101437.19;;;2.41;100.00
15308;BME280;7755;52.208;6.964;2022-12-04T12:24:42;101438.56;;;2.37;100.00
15308;BME280;7755;52.208;6.964;2022-12-04T12:29:05;101421.75;;;2.35;100.00
15308;BME280;7755;52.208;6.964;2022-12-04T12:33:17;101423.78;;;2.33;100.00
15308;BME280;7755;52.208;6.964;2022-12-04T12:37:26;101414.91;;;2.25;100.00
15308;BME280;7755;52.208;6.964;2022-12-04T12:41:35;101428.97;;;2.27;100.00
15308;BME280;7755;52.208;6.964;2022-12-04T12:45:44;101424.94;;;2.23;100.00
15308;BME280;7755;52.208;6.964;2022-12-04T12:49:55;101419.94;;;2.28;100.00
15308;BME280;7755;52.208;6.964;2022-12-04T12:54:08;101427.13;;;2.27;100.00
15308;BME280;7755;52.208;6.964;2022-12-04T12:58:20;101422.09;;;2.32;100.00
15308;BME280;7755;52.208;6.964;2022-12-04T13:02:27;101420.91;;;2.43;100.00
15308;BME280;7755;52.208;6.964;2022-12-04T13:06:35;101411.53;;;2.47;100.00
15308;BME280;7755;52.208;6.964;2022-12-04T13:10:42;101408.31;;;2.43;100.00
15308;BME280;7755;52.208;6.964;2022-12-04T13:14:47;101406.00;;;2.40;100.00
15308;BME280;7755;52.208;6.964;2022-12-04T13:18:58;101399.13;;;2.38;100.00
15308;BME280;7755;52.208;6.964;2022-12-04T13:23:16;101401.63;;;2.39;100.00
15308;BME280;7755;52.208;6.964;2022-12-04T13:27:32;101401.81;;;2.46;100.00
15308;BME280;7755;52.208;6.964;2022-12-04T13:31:47;101396.06;;;2.49;100.00
15308;BME280;7755;52.208;6.964;2022-12-04T13:36:19;101405.13;;;2.48;100.00
15308;BME280;7755;52.208;6.964;2022-12-04T13:40:32;101407.34;;;2.36;100.00
15308;BME280;7755;52.208;6.964;2022-12-04T13:44:35;101402.47;;;2.40;100.00
15308;BME280;7755;52.208;6.964;2022-12-04T13:48:41;101391.56;;;2.41;100.00
15308;BME280;7755;52.208;6.964;2022-12-04T13:52:45;101396.06;;;2.49;100.00
15308;BME280;7755;52.208;6.964;2022-12-04T13:56:52;101394.38;;;2.56;100.00
15308;BME280;7755;52.208;6.964;2022-12-04T14:01:01;101399.28;;;2.53;100.00
15308;BME280;7755;52.208;6.964;2022-12-04T14:05:09;101393.91;;;2.53;100.00
15308;BME280;7755;52.208;6.964;2022-12-04T14:09:20;101394.91;;;2.52;100.00
15308;BME280;7755;52.208;6.964;2022-12-04T14:13:28;101398.91;;;2.56;100.00
15308;BME280;7755;52.208;6.964;2022-12-04T14:17:45;101385.81;;;2.61;100.00
15308;BME280;7755;52.208;6.964;2022-12-04T14:22:23;101397.91;;;2.57;100.00
15308;BME280;7755;52.208;6.964;2022-12-04T14:26:27;101399.59;;;2.58;100.00
15308;BME280;7755;52.208;6.964;2022-12-04T14:31:14;101411.66;;;2.62;100.00
15308;BME280;7755;52.208;6.964;2022-12-04T14:35:22;101414.53;;;2.60;100.00
15308;BME280;7755;52.208;6.964;2022-12-04T14:39:30;101414.00;;;2.65;100.00
15308;BME280;7755;52.208;6.964;2022-12-04T14:43:37;101423.56;;;2.67;100.00
15308;BME280;7755;52.208;6.964;2022-12-04T14:47:44;101416.69;;;2.73;100.00
15308;BME280;7755;52.208;6.964;2022-12-04T14:51:58;101427.91;;;2.68;100.00
15308;BME280;7755;52.208;6.964;2022-12-04T14:56:18;101428.75;;;2.69;100.00
15308;BME280;7755;52.208;6.964;2022-12-04T15:00:25;101439.66;;;2.76;100.00
15308;BME280;7755;52.208;6.964;2022-12-04T15:04:31;101436.16;;;2.67;100.00
15308;BME280;7755;52.208;6.964;2022-12-04T15:08:48;101426.59;;;2.64;100.00
15308;BME280;7755;52.208;6.964;2022-12-04T15:13:01;101421.22;;;2.64;100.00
15308;BME280;7755;52.208;6.964;2022-12-04T15:17:08;101426.94;;;2.61;100.00
15308;BME280;7755;52.208;6.964;2022-12-04T15:21:12;101436.31;;;2.65;100.00
15308;BME280;7755;52.208;6.964;2022-12-04T15:25:18;101436.97;;;2.67;100.00
15308;BME280;7755;52.208;6.964;2022-12-04T15:29:27;101447.91;;;2.66;100.00
15308;BME280;7755;52.208;6.964;2022-12-04T15:33:34;101439.50;;;2.61;100.00
15308;BME280;7755;52.208;6.964;2022-12-04T15:37:39;101434.34;;;2.51;100.00
15308;BME280;7755;52.208;6.964;2022-12-04T15:41:42;101432.31;;;2.53;100.00
15308;BME280;7755;52.208;6.964;2022-12-04T15:45:47;101434.50;;;2.58;100.00
15308;BME280;7755;52.208;6.964;2022-12-04T15:49:51;101426.94;;;2.53;100.00
15308;BME280;7755;52.208;6.964;2022-12-04T15:53:54;101434.81;;;2.55;100.00
15308;BME280;7755;52.208;6.964;2022-12-04T15:58:01;101432.31;;;2.53;100.00
15308;BME280;7755;52.208;6.964;2022-12-04T16:02:21;101435.00;;;2.45;100.00
15308;BME280;7755;52.208;6.964;2022-12-04T16:06:32;101438.03;;;2.42;100.00
15308;BME280;7755;52.208;6.964;2022-12-04T16:10:42;101436.34;;;2.41;100.00
15308;BME280;7755;52.208;6.964;2022-12-04T16:14:44;101438.72;;;2.44;100.00
15308;BME280;7755;52.208;6.964;2022-12-04T16:18:49;101422.59;;;2.44;100.00
15308;BME280;7755;52.208;6.964;2022-12-04T16:22:53;101430.81;;;2.42;100.00
15308;BME280;7755;52.208;6.964;2022-12-04T16:26:57;101415.53;;;2.43;100.00
15308;BME280;7755;52.208;6.964;2022-12-04T16:31:02;101421.75;;;2.43;100.00
15308;BME280;7755;52.208;6.964;2022-12-04T16:35:08;101418.22;;;2.43;100.00
15308;BME280;7755;52.208;6.964;2022-12-04T16:39:15;101420.75;;;2.44;100.00
15308;BME280;7755;52.208;6.964;2022-12-04T16:43:18;101421.59;;;2.45;100.00
15308;BME280;7755;52.208;6.964;2022-12-04T16:47:21;101430.31;;;2.47;100.00
15308;BME280;7755;52.208;6.964;2022-12-04T16:51:26;101447.91;;;2.50;100.00
15308;BME280;7755;52.208;6.964;2022-12-04T16:55:32;101434.81;;;2.55;100.00
15308;BME280;7755;52.208;6.964;2022-12-04T16:59:38;101445.22;;;2.50;100.00
15308;BME280;7755;52.208;6.964;2022-12-04T17:03:41;101455.81;;;2.51;100.00
15308;BME280;7755;52.208;6.964;2022-12-04T17:07:46;101462.19;;;2.58;100.00
15308;BME280;7755;52.208;6.964;2022-12-04T17:11:49;101444.53;;;2.56;100.00
15308;BME280;7755;52.208;6.964;2022-12-04T17:15:52;101454.44;;;2.55;100.00
15308;BME280;7755;52.208;6.964;2022-12-04T17:20:07;101444.38;;;2.57;100.00
15308;BME280;7755;52.208;6.964;2022-12-04T17:24:14;101444.53;;;2.56;100.00
15308;BME280;7755;52.208;6.964;2022-12-04T17:28:32;101442.03;;;2.54;100.00
15308;BME280;7755;52.208;6.964;2022-12-04T17:32:35;101450.09;;;2.54;100.00
15308;BME280;7755;52.208;6.964;2022-12-04T17:36:38;101446.38;;;2.63;100.00
15308;BME280;7755;52.208;6.964;2022-12-04T17:40:44;101452.09;;;2.60;100.00
15308;BME280;7755;52.208;6.964;2022-12-04T17:44:48;101455.63;;;2.53;100.00
15308;BME280;7755;52.208;6.964;2022-12-04T17:48:54;101459.81;;;2.55;100.00
15308;BME280;7755;52.208;6.964;2022-12-04T17:53:01;101464.88;;;2.58;100.00
15308;BME280;7755;52.208;6.964;2022-12-04T17:57:06;101472.38;;;2.63;100.00
15308;BME280;7755;52.208;6.964;2022-12-04T18:01:11;101462.50;;;2.71;100.00
15308;BME280;7755;52.208;6.964;2022-12-04T18:05:14;101472.88;;;2.74;100.00
15308;BME280;7755;52.208;6.964;2022-12-04T18:09:18;101469.19;;;2.67;100.00
15308;BME280;7755;52.208;6.964;2022-12-04T18:13:22;101469.03;;;2.61;100.00
15308;BME280;7755;52.208;6.964;2022-12-04T18:17:25;101475.75;;;2.65;100.00
15308;BME280;7755;52.208;6.964;2022-12-04T18:21:30;101476.25;;;2.68;100.00
15308;BME280;7755;52.208;6.964;2022-12-04T18:25:36;101468.84;;;2.70;100.00
15308;BME280;7755;52.208;6.964;2022-12-04T18:29:40;101466.16;;;2.70;100.00
15308;BME280;7755;52.208;6.964;2022-12-04T18:33:44;101479.59;;;2.70;100.00
15308;BME280;7755;52.208;6.964;2022-12-04T18:37:48;101465.69;;;2.67;100.00
15308;BME280;7755;52.208;6.964;2022-12-04T18:41:58;101472.91;;;2.66;100.00
15308;BME280;7755;52.208;6.964;2022-12-04T18:46:11;101473.56;;;2.68;100.00
15308;BME280;7755;52.208;6.964;2022-12-04T18:50:16;101475.75;;;2.65;100.00
15308;BME280;7755;52.208;6.964;2022-12-04T18:54:21;101456.13;;;2.64;100.00
15308;BME280;7755;52.208;6.964;2022-12-04T18:58:24;101464.34;;;2.71;100.00
15308;BME280;7755;52.208;6.964;2022-12-04T19:02:29;101452.91;;;2.69;100.00
15308;BME280;7755;52.208;6.964;2022-12-04T19:06:34;101462.50;;;2.71;100.00
15308;BME280;7755;52.208;6.964;2022-12-04T19:10:38;101457.59;;;2.75;100.00
15308;BME280;7755;52.208;6.964;2022-12-04T19:14:41;101454.75;;;2.68;100.00
15308;BME280;7755;52.208;6.964;2022-12-04T19:18:45;101463.34;;;2.72;100.00
15308;BME280;7755;52.208;6.964;2022-12-04T19:22:48;101469.19;;;2.76;100.00
15308;BME280;7755;52.208;6.964;2022-12-04T19:27:03;101464.16;;;2.81;100.00
15308;BME280;7755;52.208;6.964;2022-12-04T19:31:15;101466.84;;;2.81;100.00
15308;BME280;7755;52.208;6.964;2022-12-04T19:35:19;101457.44;;;2.85;100.00
15308;BME280;7755;52.208;6.964;2022-12-04T19:39:22;101454.75;;;2.85;100.00
15308;BME280;7755;52.208;6.964;2022-12-04T19:43:27;101462.13;;;2.83;100.00
15308;BME280;7755;52.208;6.964;2022-12-04T19:47:30;101456.56;;;2.84;100.00
15308;BME280;7755;52.208;6.964;2022-12-04T19:51:35;101462.63;;;2.86;100.00
15308;BME280;7755;52.208;6.964;2022-12-04T19:55:40;101457.06;;;2.88;100.00
15308;BME280;7755;52.208;6.964;2022-12-04T19:59:44;101460.78;;;2.87;100.00
15308;BME280;7755;52.208;6.964;2022-12-04T20:03:47;101458.56;;;2.90;100.00
15308;BME280;7755;52.208;6.964;2022-12-04T20:07:51;101461.78;;;2.94;100.00
15308;BME280;7755;52.208;6.964;2022-12-04T20:11:56;101449.00;;;2.96;100.00
15308;BME280;7755;52.208;6.964;2022-12-04T20:16:00;101445.97;;;2.99;100.00
15308;BME280;7755;52.208;6.964;2022-12-04T20:20:04;101451.66;;;3.04;100.00
15308;BME280;7755;52.208;6.964;2022-12-04T20:24:11;101452.47;;;3.05;100.00
15308;BME280;7755;52.208;6.964;2022-12-04T20:28:19;101453.69;;;3.02;100.00
15308;BME280;7755;52.208;6.964;2022-12-04T20:32:21;101444.44;;;3.05;100.00
15308;BME280;7755;52.208;6.964;2022-12-04T20:36:26;101451.31;;;3.07;100.00
15308;BME280;7755;52.208;6.964;2022-12-04T20:40:32;101449.66;;;3.06;100.00
15308;BME280;7755;52.208;6.964;2022-12-04T20:44:35;101448.81;;;3.06;100.00
15308;BME280;7755;52.208;6.964;2022-12-04T20:48:38;101443.25;;;3.07;100.00
15308;BME280;7755;52.208;6.964;2022-12-04T20:52:48;101450.13;;;3.10;100.00
15308;BME280;7755;52.208;6.964;2022-12-04T20:56:52;101454.66;;;3.09;100.00
15308;BME280;7755;52.208;6.964;2022-12-04T21:00:55;101447.44;;;3.10;100.00
15308;BME280;7755;52.208;6.964;2022-12-04T21:04:58;101450.28;;;3.16;100.00
15308;BME280;7755;52.208;6.964;2022-12-04T21:09:02;101436.50;;;3.19;100.00
15308;BME280;7755;52.208;6.964;2022-12-04T21:13:08;101439.00;;;3.21;100.00
15308;BME280;7755;52.208;6.964;2022-12-04T21:17:37;101440.31;;;3.25;100.00
15308;BME280;7755;52.208;6.964;2022-12-04T21:21:41;101428.09;;;3.22;100.00
15308;BME280;7755;52.208;6.964;2022-12-04T21:25:44;101436.31;;;3.21;100.00
15308;BME280;7755;52.208;6.964;2022-12-04T21:29:49;101436.97;;;3.23;100.00
15308;BME280;7755;52.208;6.964;2022-12-04T21:33:52;101437.81;;;3.23;100.00
15308;BME280;7755;52.208;6.964;2022-12-04T21:37:55;101424.56;;;3.22;100.00
15308;BME280;7755;52.208;6.964;2022-12-04T21:41:58;101435.13;;;3.23;100.00
15308;BME280;7755;52.208;6.964;2022-12-04T21:46:20;101419.31;;;3.28;100.00
15308;BME280;7755;52.208;6.964;2022-12-04T21:50:23;101428.59;;;3.26;100.00
15308;BME280;7755;52.208;6.964;2022-12-04T21:54:26;101432.56;;;3.30;100.00